createdAt,value
2018-09-20T00:00:49.706Z,23.93
2018-09-20T00:03:15.696Z,23.93
2018-09-20T00:05:41.666Z,23.92
2018-09-20T00:08:07.647Z,23.93
2018-09-20T00:10:33.631Z,23.93
2018-09-20T00:12:59.604Z,23.93
2018-09-20T00:15:25.592Z,23.92
2018-09-20T00:17:51.565Z,23.92
2018-09-20T00:20:17.555Z,23.92
2018-09-20T00:22:43.540Z,23.92
2018-09-20T00:25:09.525Z,23.92
2018-09-20T00:27:35.529Z,23.92
2018-09-20T00:30:01.508Z,23.91
2018-09-20T00:32:27.487Z,23.92
2018-09-20T00:34:53.468Z,23.92
2018-09-20T00:37:19.450Z,23.92
2018-09-20T00:39:45.434Z,23.91
2018-09-20T00:42:11.424Z,23.91
2018-09-20T00:44:37.416Z,23.91
2018-09-20T00:47:03.392Z,23.91
2018-09-20T00:49:29.414Z,23.91
2018-09-20T00:51:55.390Z,23.90
2018-09-20T00:54:21.411Z,23.90
2018-09-20T00:56:47.390Z,23.90
2018-09-20T00:59:13.365Z,23.90
2018-09-20T01:01:39.346Z,23.90
2018-09-20T01:04:05.339Z,23.90
2018-09-20T01:06:31.325Z,23.90
2018-09-20T01:08:57.315Z,23.90
2018-09-20T01:11:23.293Z,23.89
2018-09-20T01:13:49.279Z,23.90
2018-09-20T01:16:15.252Z,23.90
2018-09-20T01:18:41.234Z,23.89
2018-09-20T01:21:07.229Z,23.89
2018-09-20T01:23:33.207Z,23.89
2018-09-20T01:25:59.186Z,23.89
2018-09-20T01:28:25.164Z,23.89
2018-09-20T01:30:51.234Z,23.88
2018-09-20T01:33:17.217Z,23.89
2018-09-20T01:35:43.194Z,23.89
2018-09-20T01:38:09.176Z,23.89
2018-09-20T01:40:35.171Z,23.89
2018-09-20T01:43:01.157Z,23.89
2018-09-20T01:45:27.152Z,23.88
2018-09-20T01:47:53.134Z,23.88
2018-09-20T01:50:19.118Z,23.89
2018-09-20T01:52:45.108Z,23.88
2018-09-20T01:55:11.091Z,23.88
2018-09-20T01:57:37.081Z,23.88
2018-09-20T02:00:03.064Z,23.88
2018-09-20T02:02:29.048Z,23.87
2018-09-20T02:04:55.025Z,23.87
2018-09-20T02:07:21.008Z,23.88
2018-09-20T02:09:47.002Z,23.88
2018-09-20T02:12:12.981Z,23.87
2018-09-20T02:14:38.960Z,23.87
2018-09-20T02:17:04.980Z,23.87
2018-09-20T02:19:31.026Z,23.87
2018-09-20T02:21:57.009Z,23.87
2018-09-20T02:24:22.982Z,23.87
2018-09-20T02:26:49.000Z,23.87
2018-09-20T02:29:14.979Z,23.87
2018-09-20T02:31:40.956Z,23.86
2018-09-20T02:34:06.936Z,23.86
2018-09-20T02:36:32.922Z,23.86
2018-09-20T02:38:58.899Z,23.86
2018-09-20T02:41:24.884Z,23.86
2018-09-20T02:43:50.862Z,23.86
2018-09-20T02:46:16.846Z,23.86
2018-09-20T02:48:42.833Z,23.87
2018-09-20T02:51:08.819Z,23.86
2018-09-20T02:53:34.798Z,23.86
2018-09-20T02:56:00.792Z,23.86
2018-09-20T02:58:26.774Z,23.85
2018-09-20T03:00:52.755Z,23.86
2018-09-20T03:03:18.742Z,23.86
2018-09-20T03:05:44.726Z,23.86
2018-09-20T03:08:10.811Z,23.86
2018-09-20T03:10:36.795Z,23.85
2018-09-20T03:13:02.852Z,23.85
2018-09-20T03:15:28.860Z,23.85
2018-09-20T03:17:54.838Z,23.85
2018-09-20T03:20:20.824Z,23.85
2018-09-20T03:22:46.795Z,23.85
2018-09-20T03:25:12.780Z,23.85
2018-09-20T03:27:38.761Z,23.86
2018-09-20T03:30:04.839Z,23.85
2018-09-20T03:32:30.777Z,23.85
2018-09-20T03:34:56.755Z,23.84
2018-09-20T03:37:22.752Z,23.84
2018-09-20T03:39:48.727Z,23.84
2018-09-20T03:42:14.721Z,23.84
2018-09-20T03:44:40.698Z,23.84
2018-09-20T03:47:06.750Z,23.84
2018-09-20T03:49:32.741Z,23.84
2018-09-20T03:51:58.712Z,23.84
2018-09-20T03:54:24.695Z,23.84
2018-09-20T03:56:50.683Z,23.84
2018-09-20T03:59:16.659Z,23.84
2018-09-20T04:01:42.642Z,23.83
2018-09-20T04:04:08.632Z,23.83
2018-09-20T04:06:34.626Z,23.84
2018-09-20T04:09:00.632Z,23.85
2018-09-20T04:11:26.605Z,23.85
2018-09-20T04:13:52.586Z,23.86
2018-09-20T04:16:18.569Z,23.86
2018-09-20T04:18:44.564Z,23.87
2018-09-20T04:21:10.546Z,23.88
2018-09-20T04:23:36.528Z,23.89
2018-09-20T04:26:02.590Z,23.89
2018-09-20T04:28:28.514Z,23.89
2018-09-20T04:30:54.571Z,23.91
2018-09-20T04:33:20.550Z,23.91
2018-09-20T04:35:46.573Z,23.91
2018-09-20T04:38:12.507Z,23.91
2018-09-20T04:40:38.600Z,23.92
2018-09-20T04:43:04.611Z,23.93
2018-09-20T04:45:30.582Z,23.94
2018-09-20T04:47:56.574Z,23.94
2018-09-20T04:50:22.582Z,23.94
2018-09-20T04:52:48.569Z,23.95
2018-09-20T04:55:14.557Z,23.97
2018-09-20T04:57:40.538Z,23.97
2018-09-20T05:00:06.620Z,23.98
2018-09-20T05:02:32.557Z,23.98
2018-09-20T05:04:58.638Z,23.98
2018-09-20T05:07:24.598Z,23.98
2018-09-20T05:09:50.619Z,23.99
2018-09-20T05:12:16.610Z,24.00
2018-09-20T05:14:42.597Z,24.01
2018-09-20T05:17:08.593Z,24.09
2018-09-20T05:19:34.593Z,24.06
2018-09-20T05:22:00.565Z,24.04
2018-09-20T05:24:26.548Z,24.01
2018-09-20T05:26:52.538Z,24.01
2018-09-20T05:29:18.585Z,24.00
2018-09-20T05:31:44.569Z,24.00
2018-09-20T05:34:10.578Z,24.00
2018-09-20T05:36:36.565Z,23.99
2018-09-20T05:39:02.553Z,24.00
2018-09-20T05:41:28.568Z,24.00
2018-09-20T05:43:54.531Z,24.01
2018-09-20T05:46:20.586Z,24.01
2018-09-20T05:48:46.983Z,24.01
2018-09-20T05:51:13.565Z,24.01
2018-09-20T05:53:39.630Z,24.00
2018-09-20T05:56:06.165Z,24.00
2018-09-20T05:58:32.898Z,24.01
2018-09-20T06:00:58.994Z,24.01
2018-09-20T06:03:24.932Z,24.01
2018-09-20T06:05:52.887Z,24.02
2018-09-20T06:08:21.498Z,24.02
2018-09-20T06:10:47.444Z,24.02
2018-09-20T06:13:13.471Z,24.01
2018-09-20T06:15:39.438Z,24.01
2018-09-20T06:18:05.427Z,24.02
2018-09-20T06:20:34.631Z,24.02
2018-09-20T06:23:02.713Z,24.02
2018-09-20T06:25:31.484Z,24.01
2018-09-20T06:27:57.460Z,24.02
2018-09-20T06:30:23.446Z,24.02
2018-09-20T06:32:49.434Z,24.01
2018-09-20T06:35:15.426Z,24.03
2018-09-20T06:37:41.401Z,24.02
2018-09-20T06:40:07.381Z,24.13
2018-09-20T06:42:33.389Z,24.09
2018-09-20T06:44:59.414Z,24.08
2018-09-20T06:47:26.040Z,24.09
2018-09-20T06:49:52.055Z,24.07
2018-09-20T06:52:18.120Z,24.07
2018-09-20T06:54:44.097Z,24.07
2018-09-20T06:57:10.089Z,24.05
2018-09-20T06:59:36.093Z,24.04
2018-09-20T07:02:02.326Z,24.04
2018-09-20T07:04:28.278Z,24.04
2018-09-20T07:06:54.265Z,24.05
2018-09-20T07:09:20.241Z,24.05
2018-09-20T07:11:46.224Z,24.05
2018-09-20T07:14:12.219Z,24.04
2018-09-20T07:16:38.239Z,24.05
2018-09-20T07:19:04.275Z,24.04
2018-09-20T07:21:30.201Z,24.05
2018-09-20T07:23:56.229Z,24.04
2018-09-20T07:26:22.222Z,24.06
2018-09-20T07:28:48.189Z,24.06
2018-09-20T07:31:14.225Z,24.04
2018-09-20T07:33:40.197Z,24.04
2018-09-20T07:36:06.197Z,24.05
2018-09-20T07:38:32.188Z,24.05
2018-09-20T07:40:58.176Z,24.06
2018-09-20T07:43:24.207Z,24.05
2018-09-20T07:45:50.182Z,24.05
2018-09-20T07:48:16.162Z,24.06
2018-09-20T07:50:42.143Z,24.05
2018-09-20T07:53:08.155Z,24.04
2018-09-20T07:55:34.130Z,24.05
2018-09-20T07:58:00.115Z,24.06
2018-09-20T08:00:26.915Z,24.04
2018-09-20T08:02:52.899Z,24.04
2018-09-20T08:05:18.920Z,24.04
2018-09-20T08:07:44.894Z,24.05
2018-09-20T08:10:10.869Z,24.04
2018-09-20T08:12:37.270Z,24.05
2018-09-20T08:15:03.259Z,24.05
2018-09-20T08:17:29.242Z,24.03
2018-09-20T08:19:55.275Z,24.05
2018-09-20T08:22:21.257Z,24.05
2018-09-20T08:24:47.238Z,24.04
2018-09-20T08:27:13.217Z,24.03
2018-09-20T08:29:39.239Z,24.04
2018-09-20T08:32:05.191Z,24.06
2018-09-20T08:34:31.177Z,24.06
2018-09-20T08:36:57.156Z,24.06
2018-09-20T08:39:23.143Z,24.04
2018-09-20T08:41:49.123Z,24.04
2018-09-20T08:44:15.207Z,24.05
2018-09-20T08:46:41.162Z,24.06
2018-09-20T08:49:07.204Z,24.05
2018-09-20T08:51:33.260Z,24.06
2018-09-20T08:53:59.234Z,24.06
2018-09-20T08:56:25.218Z,24.06
2018-09-20T08:58:51.203Z,24.06
2018-09-20T09:01:17.193Z,24.07
2018-09-20T09:03:43.175Z,24.06
2018-09-20T09:06:09.159Z,24.09
2018-09-20T09:08:35.185Z,24.09
2018-09-20T09:11:01.173Z,24.09
2018-09-20T09:13:27.170Z,24.06
2018-09-20T09:15:53.153Z,24.08
2018-09-20T09:18:19.150Z,24.06
2018-09-20T09:20:45.125Z,24.05
2018-09-20T09:23:11.143Z,24.05
2018-09-20T09:25:37.147Z,24.06
2018-09-20T09:28:03.140Z,24.04
2018-09-20T09:30:29.120Z,24.04
2018-09-20T09:32:55.115Z,24.07
2018-09-20T09:35:21.100Z,24.06
2018-09-20T09:37:47.078Z,24.06
2018-09-20T09:40:13.097Z,24.07
2018-09-20T09:42:39.085Z,24.06
2018-09-20T09:45:05.095Z,24.09
2018-09-20T09:47:31.085Z,24.07
2018-09-20T09:49:57.068Z,24.07
2018-09-20T09:52:23.108Z,24.08
2018-09-20T09:54:49.135Z,24.07
2018-09-20T09:57:15.074Z,24.10
2018-09-20T09:59:41.078Z,24.11
2018-09-20T10:02:07.037Z,24.12
2018-09-20T10:04:33.034Z,24.12
2018-09-20T10:06:59.074Z,24.14
2018-09-20T10:09:25.032Z,24.13
2018-09-20T10:11:51.018Z,24.13
2018-09-20T10:14:17.002Z,24.12
2018-09-20T10:16:43.006Z,24.13
2018-09-20T10:19:08.989Z,24.12
2018-09-20T10:21:35.033Z,24.13
2018-09-20T10:24:01.044Z,24.14
2018-09-20T10:26:27.000Z,24.14
2018-09-20T10:28:52.996Z,24.15
2018-09-20T10:31:19.087Z,24.16
2018-09-20T10:33:45.028Z,24.16
2018-09-20T10:36:10.974Z,24.18
2018-09-20T10:38:36.988Z,24.19
2018-09-20T10:41:03.005Z,24.20
2018-09-20T10:43:28.985Z,24.20
2018-09-20T10:45:54.977Z,24.21
2018-09-20T10:48:20.954Z,24.20
2018-09-20T10:50:46.940Z,24.20
2018-09-20T10:53:12.941Z,24.19
2018-09-20T10:55:38.981Z,24.20
2018-09-20T10:58:04.919Z,24.20
2018-09-20T11:00:30.900Z,24.21
2018-09-20T11:02:56.964Z,24.20
2018-09-20T11:05:22.906Z,24.22
2018-09-20T11:07:48.861Z,24.20
2018-09-20T11:10:14.856Z,24.23
2018-09-20T11:12:40.841Z,24.24
2018-09-20T11:15:06.824Z,24.25
2018-09-20T11:17:32.819Z,24.28
2018-09-20T11:19:58.809Z,24.28
2018-09-20T11:22:24.836Z,24.28
2018-09-20T11:24:50.815Z,24.30
2018-09-20T11:27:16.851Z,24.29
2018-09-20T11:29:42.838Z,24.29
2018-09-20T11:32:08.842Z,24.27
2018-09-20T11:34:34.834Z,24.26
2018-09-20T11:37:00.835Z,24.27
2018-09-20T11:39:26.817Z,24.27
2018-09-20T11:41:52.802Z,24.26
2018-09-20T11:44:18.869Z,24.26
2018-09-20T11:46:44.862Z,24.25
2018-09-20T11:49:10.848Z,24.25
2018-09-20T11:51:36.850Z,24.25
2018-09-20T11:54:02.869Z,24.25
2018-09-20T11:56:28.849Z,24.26
2018-09-20T11:58:54.825Z,24.25
2018-09-20T12:01:20.855Z,24.24
2018-09-20T12:03:46.804Z,24.24
2018-09-20T12:06:12.806Z,24.24
2018-09-20T12:08:38.846Z,24.22
2018-09-20T12:11:04.847Z,24.22
2018-09-20T12:13:30.860Z,24.21
2018-09-20T12:15:56.841Z,24.21
2018-09-20T12:18:22.833Z,24.20
2018-09-20T12:20:48.844Z,24.19
2018-09-20T12:23:14.840Z,24.19
2018-09-20T12:25:40.809Z,24.19
2018-09-20T12:28:06.880Z,24.18
2018-09-20T12:30:32.927Z,24.18
2018-09-20T12:32:58.953Z,24.17
2018-09-20T12:35:24.951Z,24.17
2018-09-20T12:37:50.889Z,24.17
2018-09-20T12:40:16.868Z,24.17
2018-09-20T12:42:42.863Z,24.17
2018-09-20T12:45:08.856Z,24.17
2018-09-20T12:47:34.837Z,24.18
2018-09-20T12:50:00.830Z,24.17
2018-09-20T12:52:26.853Z,24.16
2018-09-20T12:54:52.839Z,24.18
2018-09-20T12:57:18.880Z,24.17
2018-09-20T12:59:44.854Z,24.18
2018-09-20T13:02:10.887Z,24.17
2018-09-20T13:04:36.967Z,24.17
2018-09-20T13:07:02.980Z,24.17
2018-09-20T13:09:28.987Z,24.16
2018-09-20T13:11:54.985Z,24.16
2018-09-20T13:14:20.990Z,24.15
2018-09-20T13:16:46.974Z,24.15
2018-09-20T13:19:12.976Z,24.15
2018-09-20T13:21:38.985Z,24.14
2018-09-20T13:24:04.961Z,24.13
2018-09-20T13:26:30.944Z,24.14
2018-09-20T13:28:56.956Z,24.13
2018-09-20T13:31:22.952Z,24.13
2018-09-20T13:33:48.962Z,24.13
2018-09-20T13:36:14.946Z,24.12
2018-09-20T13:38:46.016Z,24.12
2018-09-20T13:41:11.999Z,24.12
2018-09-20T13:43:38.064Z,24.12
2018-09-20T13:46:04.024Z,24.13
2018-09-20T13:48:30.036Z,24.12
2018-09-20T13:50:56.037Z,24.13
2018-09-20T13:53:22.038Z,24.13
2018-09-20T13:55:48.081Z,24.13
2018-09-20T13:58:14.062Z,24.14
2018-09-20T14:00:40.040Z,24.14
2018-09-20T14:03:06.066Z,24.13
2018-09-20T14:05:32.129Z,24.13
2018-09-20T14:07:58.144Z,24.12
2018-09-20T14:10:24.167Z,24.12
2018-09-20T14:12:50.116Z,24.12
2018-09-20T14:15:16.131Z,24.11
2018-09-20T14:17:42.113Z,24.11
2018-09-20T14:20:08.143Z,24.11
2018-09-20T14:22:34.145Z,24.10
2018-09-20T14:25:00.187Z,24.09
2018-09-20T14:27:26.209Z,24.09
2018-09-20T14:29:52.385Z,24.08
2018-09-20T14:32:18.395Z,24.09
2018-09-20T14:34:44.407Z,24.08
2018-09-20T14:37:10.417Z,24.07
2018-09-20T14:39:36.416Z,24.09
2018-09-20T14:42:02.399Z,24.08
2018-09-20T14:44:28.377Z,24.08
2018-09-20T14:46:54.378Z,24.09
2018-09-20T14:49:20.377Z,24.07
2018-09-20T14:51:46.384Z,24.09
2018-09-20T14:54:12.405Z,24.10
2018-09-20T14:56:38.407Z,24.10
2018-09-20T14:59:04.429Z,24.10
2018-09-20T15:01:30.449Z,24.11
2018-09-20T15:03:56.458Z,24.12
2018-09-20T15:06:22.495Z,24.12
2018-09-20T15:08:48.496Z,24.12
2018-09-20T15:11:14.505Z,24.11
2018-09-20T15:13:40.493Z,24.12
2018-09-20T15:16:06.494Z,24.12
2018-09-20T15:18:32.515Z,24.13
2018-09-20T15:20:58.519Z,24.13
2018-09-20T15:23:24.522Z,24.12
2018-09-20T15:25:50.561Z,24.14
2018-09-20T15:28:16.529Z,24.20
2018-09-20T15:30:42.509Z,24.39
2018-09-20T15:33:08.504Z,24.27
2018-09-20T15:35:34.485Z,24.24
2018-09-20T15:38:00.533Z,24.23
2018-09-20T15:40:26.516Z,24.21
2018-09-20T15:42:52.496Z,24.26
2018-09-20T15:45:18.483Z,24.39
2018-09-20T15:47:44.461Z,24.42
2018-09-20T15:50:10.465Z,24.36
2018-09-20T15:52:36.477Z,24.33
2018-09-20T15:55:02.451Z,24.33
2018-09-20T15:57:28.457Z,24.34
2018-09-20T15:59:54.537Z,24.34
2018-09-20T16:02:20.495Z,24.32
2018-09-20T16:04:46.499Z,24.28
2018-09-20T16:07:12.491Z,24.24
2018-09-20T16:09:38.512Z,24.21
2018-09-20T16:12:04.493Z,24.19
2018-09-20T16:14:30.540Z,24.16
2018-09-20T16:16:56.470Z,24.16
2018-09-20T16:19:22.710Z,24.14
2018-09-20T16:21:48.790Z,24.16
2018-09-20T16:24:15.093Z,24.17
2018-09-20T16:26:41.085Z,24.18
2018-09-20T16:29:07.061Z,24.18
2018-09-20T16:31:33.088Z,24.18
2018-09-20T16:33:59.213Z,24.17
2018-09-20T16:36:25.326Z,24.17
2018-09-20T16:38:51.340Z,24.18
2018-09-20T16:41:17.347Z,24.17
2018-09-20T16:43:43.336Z,24.17
2018-09-20T16:46:09.333Z,24.18
2018-09-20T16:48:35.325Z,24.17
2018-09-20T16:51:01.955Z,24.16
2018-09-20T16:53:28.043Z,24.16
2018-09-20T16:55:54.132Z,24.16
2018-09-20T16:58:20.110Z,24.16
2018-09-20T17:00:46.101Z,24.18
2018-09-20T17:03:14.432Z,24.17
2018-09-20T17:05:40.501Z,24.21
2018-09-20T17:08:06.489Z,24.21
2018-09-20T17:10:32.479Z,24.21
2018-09-20T17:12:58.501Z,24.22
2018-09-20T17:15:24.474Z,24.24
2018-09-20T17:17:50.903Z,24.25
2018-09-20T17:20:16.918Z,24.24
2018-09-20T17:22:43.282Z,24.27
2018-09-20T17:25:09.242Z,24.31
2018-09-20T17:27:35.236Z,24.33
2018-09-20T17:30:01.215Z,24.34
2018-09-20T17:32:27.205Z,24.34
2018-09-20T17:34:53.196Z,24.30
2018-09-20T17:37:19.175Z,24.27
2018-09-20T17:39:45.204Z,24.31
2018-09-20T17:42:11.186Z,24.31
2018-09-20T17:44:37.220Z,24.29
2018-09-20T17:47:03.191Z,24.28
2018-09-20T17:49:29.166Z,24.26
2018-09-20T17:51:55.173Z,24.24
2018-09-20T17:54:21.204Z,24.25
2018-09-20T17:56:47.177Z,24.25
2018-09-20T17:59:13.134Z,24.25
2018-09-20T18:01:39.134Z,24.24
2018-09-20T18:04:05.121Z,24.23
2018-09-20T18:06:31.094Z,24.21
2018-09-20T18:08:57.090Z,24.22
2018-09-20T18:11:23.071Z,24.23
2018-09-20T18:13:49.057Z,24.23
2018-09-20T18:16:15.039Z,24.23
2018-09-20T18:18:41.018Z,24.23
2018-09-20T18:21:06.991Z,24.23
2018-09-20T18:23:32.972Z,24.22
2018-09-20T18:25:58.960Z,24.22
2018-09-20T18:28:24.951Z,24.21
2018-09-20T18:30:50.935Z,24.20
2018-09-20T18:33:16.926Z,24.20
2018-09-20T18:35:42.974Z,24.20
2018-09-20T18:38:09.028Z,24.20
2018-09-20T18:40:35.106Z,24.20
2018-09-20T18:43:01.037Z,24.26
2018-09-20T18:45:27.009Z,24.28
2018-09-20T18:47:53.087Z,24.25
2018-09-20T18:50:19.096Z,24.25
2018-09-20T18:52:45.050Z,24.23
2018-09-20T18:55:11.031Z,24.23
2018-09-20T18:57:37.033Z,24.22
2018-09-20T19:00:03.232Z,24.21
2018-09-20T19:02:29.205Z,24.22
2018-09-20T19:04:55.190Z,24.22
2018-09-20T19:07:21.213Z,24.21
2018-09-20T19:09:47.141Z,24.22
2018-09-20T19:12:13.130Z,24.22
2018-09-20T19:14:39.118Z,24.23
2018-09-20T19:17:05.104Z,24.24
2018-09-20T19:19:31.092Z,24.24
2018-09-20T19:21:57.105Z,24.23
2018-09-20T19:24:23.086Z,24.21
2018-09-20T19:26:49.172Z,24.19
2018-09-20T19:29:15.161Z,24.18
2018-09-20T19:31:41.221Z,24.16
2018-09-20T19:34:07.221Z,24.15
2018-09-20T19:36:33.218Z,24.14
2018-09-20T19:38:59.208Z,24.13
2018-09-20T19:41:25.194Z,24.13
2018-09-20T19:43:51.233Z,24.12
2018-09-20T19:46:17.226Z,24.11
2018-09-20T19:48:43.360Z,24.11
2018-09-20T19:51:09.338Z,24.11
2018-09-20T19:53:35.325Z,24.11
2018-09-20T19:56:01.312Z,24.10
2018-09-20T19:58:27.284Z,24.09
2018-09-20T20:00:53.275Z,24.10
2018-09-20T20:03:19.257Z,24.09
2018-09-20T20:05:45.242Z,24.08
2018-09-20T20:08:11.562Z,24.06
2018-09-20T20:10:38.254Z,24.07
2018-09-20T20:13:04.586Z,24.07
2018-09-20T20:15:30.575Z,24.06
2018-09-20T20:17:56.574Z,24.05
2018-09-20T20:20:22.624Z,24.04
2018-09-20T20:22:48.626Z,24.05
2018-09-20T20:25:14.712Z,24.04
2018-09-20T20:27:40.699Z,24.05
2018-09-20T20:30:07.664Z,24.04
2018-09-20T20:32:33.660Z,24.03
2018-09-20T20:34:59.594Z,24.03
2018-09-20T20:37:25.578Z,24.02
2018-09-20T20:39:51.615Z,24.03
2018-09-20T20:42:17.555Z,24.02
2018-09-20T20:44:45.366Z,24.02
2018-09-20T20:47:20.074Z,24.03
2018-09-20T20:49:47.383Z,24.02
2018-09-20T20:52:13.384Z,24.01
2018-09-20T20:54:39.438Z,24.01
2018-09-20T20:57:05.437Z,24.02
2018-09-20T20:59:31.419Z,24.01
2018-09-20T21:01:57.398Z,24.02
2018-09-20T21:04:23.394Z,24.01
2018-09-20T21:06:49.403Z,24.00
2018-09-20T21:09:15.389Z,24.00
2018-09-20T21:11:41.368Z,24.00
2018-09-20T21:14:07.356Z,24.00
2018-09-20T21:16:33.345Z,24.00
2018-09-20T21:18:59.326Z,24.00
2018-09-20T21:21:25.303Z,23.99
2018-09-20T21:23:51.305Z,23.99
2018-09-20T21:26:17.287Z,23.99
2018-09-20T21:28:43.277Z,24.00
2018-09-20T21:31:09.257Z,23.98
2018-09-20T21:33:35.239Z,23.98
2018-09-20T21:36:01.242Z,23.98
2018-09-20T21:38:27.239Z,23.98
2018-09-20T21:40:53.215Z,23.98
2018-09-20T21:43:19.200Z,23.98
2018-09-20T21:45:45.174Z,23.98
2018-09-20T21:48:11.148Z,23.97
2018-09-20T21:50:37.120Z,23.97
2018-09-20T21:53:03.097Z,23.97
2018-09-20T21:55:29.099Z,23.97
2018-09-20T21:57:55.072Z,23.96
2018-09-20T22:00:21.067Z,23.97
2018-09-20T22:02:47.058Z,23.96
2018-09-20T22:05:13.051Z,23.96
2018-09-20T22:07:39.028Z,23.96
2018-09-20T22:10:05.010Z,23.95
2018-09-20T22:12:30.997Z,23.96
2018-09-20T22:14:56.986Z,23.95
2018-09-20T22:17:22.973Z,23.95
2018-09-20T22:19:48.967Z,23.95
2018-09-20T22:22:14.994Z,23.95
2018-09-20T22:24:40.972Z,23.94
2018-09-20T22:27:06.960Z,23.94
2018-09-20T22:29:32.941Z,23.94
2018-09-20T22:31:58.925Z,23.94
2018-09-20T22:34:24.934Z,23.94
2018-09-20T22:36:50.954Z,23.94
2018-09-20T22:39:16.935Z,23.94
2018-09-20T22:41:42.921Z,23.94
2018-09-20T22:44:08.952Z,23.94
2018-09-20T22:46:34.930Z,23.93
2018-09-20T22:49:00.912Z,23.93
2018-09-20T22:51:26.936Z,23.93
2018-09-20T22:53:52.914Z,23.93
2018-09-20T22:56:18.897Z,23.92
2018-09-20T22:58:44.878Z,23.92
2018-09-20T23:01:10.862Z,23.93
2018-09-20T23:03:36.840Z,23.93
2018-09-20T23:06:02.855Z,23.92
2018-09-20T23:08:28.842Z,23.92
2018-09-20T23:10:54.820Z,23.92
2018-09-20T23:13:20.870Z,23.92
2018-09-20T23:15:46.846Z,23.92
2018-09-20T23:18:12.836Z,23.91
2018-09-20T23:20:38.820Z,23.92
2018-09-20T23:23:04.807Z,23.92
2018-09-20T23:25:30.790Z,23.91
2018-09-20T23:27:56.771Z,23.91
2018-09-20T23:30:22.756Z,23.91
2018-09-20T23:32:48.734Z,23.91
2018-09-20T23:35:14.753Z,23.91
2018-09-20T23:37:40.731Z,23.91
2018-09-20T23:40:06.713Z,23.90
2018-09-20T23:42:32.720Z,23.90
2018-09-20T23:44:58.701Z,23.90
2018-09-20T23:47:24.677Z,23.91
2018-09-20T23:49:50.665Z,23.90
2018-09-20T23:52:16.653Z,23.90
2018-09-20T23:54:42.643Z,23.91
2018-09-20T23:57:08.616Z,23.94
2018-09-20T23:59:34.628Z,23.96
